createdAt,value
2016-12-11T00:00:48.636Z,1002.6
2016-12-11T00:01:58.675Z,1002.55
2016-12-11T00:03:08.722Z,1002.52
2016-12-11T00:04:18.755Z,1002.52
2016-12-11T00:05:29.107Z,1002.5
2016-12-11T00:06:38.851Z,1002.51
2016-12-11T00:07:49.212Z,1002.47
2016-12-11T00:08:59.456Z,1002.46
2016-12-11T00:10:09.177Z,1002.46
2016-12-11T00:11:19.207Z,1002.4
2016-12-11T00:12:29.265Z,1002.46
2016-12-11T00:13:39.618Z,1002.43
2016-12-11T00:14:49.988Z,1002.42
2016-12-11T00:15:59.749Z,1002.41
2016-12-11T00:17:10.068Z,1002.34
2016-12-11T00:18:20.113Z,1002.36
2016-12-11T00:19:30.140Z,1002.29
2016-12-11T00:20:40.498Z,1002.26
2016-12-11T00:21:50.834Z,1002.25
2016-12-11T00:23:01.202Z,1002.28
2016-12-11T00:24:11.537Z,1002.26
2016-12-11T00:25:21.871Z,1002.26
2016-12-11T00:26:32.203Z,1002.26
2016-12-11T00:27:42.218Z,1002.25
2016-12-11T00:28:52.594Z,1002.26
2016-12-11T00:30:02.928Z,1002.28
2016-12-11T00:31:12.954Z,1002.26
2016-12-11T00:32:22.973Z,1002.2
2016-12-11T00:33:33.326Z,1002.21
2016-12-11T00:34:43.648Z,1002.26
2016-12-11T00:35:55.135Z,1002.21
2016-12-11T00:37:05.155Z,1002.19
2016-12-11T00:38:15.183Z,1002.2
2016-12-11T00:39:25.202Z,1002.15
2016-12-11T00:40:35.773Z,1002.16
2016-12-11T00:41:46.103Z,1002.13
2016-12-11T00:42:55.513Z,1002.13
2016-12-11T00:44:05.224Z,1002.07
2016-12-11T00:45:15.259Z,1002.09
2016-12-11T00:46:25.606Z,1002.07
2016-12-11T00:47:35.676Z,1002.11
2016-12-11T00:48:45.695Z,1002.08
2016-12-11T00:49:56.046Z,1002.07
2016-12-11T00:51:06.392Z,1002.01
2016-12-11T00:52:16.434Z,1002.02
2016-12-11T00:53:26.461Z,1002.02
2016-12-11T00:54:36.563Z,1002.04
2016-12-11T00:55:46.902Z,1002
2016-12-11T00:56:56.922Z,1001.94
2016-12-11T00:58:06.969Z,1001.96
2016-12-11T00:59:16.990Z,1001.96
2016-12-11T01:00:27.368Z,1001.92
2016-12-11T01:01:37.423Z,1001.94
2016-12-11T01:02:47.444Z,1001.9
2016-12-11T01:03:57.502Z,1001.91
2016-12-11T01:05:07.849Z,1001.92
2016-12-11T01:06:17.566Z,1001.89
2016-12-11T01:07:27.595Z,1001.94
2016-12-11T01:08:37.935Z,1001.92
2016-12-11T01:09:47.662Z,1001.91
2016-12-11T01:10:58.034Z,1001.9
2016-12-11T01:12:08.095Z,1001.87
2016-12-11T01:13:18.117Z,1001.85
2016-12-11T01:14:28.463Z,1001.81
2016-12-11T01:15:38.814Z,1001.77
2016-12-11T01:16:48.831Z,1001.75
2016-12-11T01:17:58.859Z,1001.72
2016-12-11T01:19:09.201Z,1001.73
2016-12-11T01:20:19.555Z,1001.67
2016-12-11T01:21:28.671Z,1001.59
2016-12-11T01:22:38.679Z,1001.63
2016-12-11T01:23:49.032Z,1001.6
2016-12-11T01:24:58.745Z,1001.61
2016-12-11T01:26:09.083Z,1001.61
2016-12-11T01:27:19.429Z,1001.55
2016-12-11T01:28:29.460Z,1001.57
2016-12-11T01:29:39.790Z,1001.58
2016-12-11T01:30:49.809Z,1001.55
2016-12-11T01:31:59.530Z,1001.58
2016-12-11T01:33:09.557Z,1001.5
2016-12-11T01:34:19.890Z,1001.51
2016-12-11T01:35:30.217Z,1001.47
2016-12-11T01:36:40.548Z,1001.46
2016-12-11T01:37:50.564Z,1001.44
2016-12-11T01:39:00.266Z,1001.44
2016-12-11T01:40:09.988Z,1001.4
2016-12-11T01:41:20.011Z,1001.42
2016-12-11T01:42:30.039Z,1001.39
2016-12-11T01:43:40.058Z,1001.33
2016-12-11T01:44:50.390Z,1001.38
2016-12-11T01:46:00.432Z,1001.31
2016-12-11T01:47:10.763Z,1001.31
2016-12-11T01:48:20.781Z,1001.3
2016-12-11T01:49:30.483Z,1001.26
2016-12-11T01:50:40.831Z,1001.22
2016-12-11T01:51:51.176Z,1001.21
2016-12-11T01:53:01.565Z,1001.22
2016-12-11T01:54:11.904Z,1001.15
2016-12-11T01:55:22.241Z,1001.15
2016-12-11T01:56:31.947Z,1001.18
2016-12-11T01:57:42.275Z,1001.12
2016-12-11T01:58:52.285Z,1001.17
2016-12-11T02:00:02.299Z,1001.11
2016-12-11T02:01:12.315Z,1001.15
2016-12-11T02:02:21.713Z,1001.13
2016-12-11T02:03:32.050Z,1001.1
2016-12-11T02:04:42.382Z,1001.11
2016-12-11T02:05:52.405Z,1001.08
2016-12-11T02:07:02.736Z,1001.07
2016-12-11T02:08:12.452Z,1001.04
2016-12-11T02:09:22.157Z,1001.1
2016-12-11T02:10:32.175Z,1001.03
2016-12-11T02:11:42.186Z,1001.09
2016-12-11T02:12:51.893Z,1001.01
2016-12-11T02:14:02.254Z,1000.99
2016-12-11T02:15:12.593Z,1000.9
2016-12-11T02:16:22.291Z,1000.96
2016-12-11T02:17:32.309Z,1000.87
2016-12-11T02:18:42.312Z,1000.85
2016-12-11T02:19:52.640Z,1000.86
2016-12-11T02:21:02.670Z,1000.78
2016-12-11T02:22:12.722Z,1000.78
2016-12-11T02:23:23.049Z,1000.78
2016-12-11T02:24:32.751Z,1000.79
2016-12-11T02:25:42.471Z,1000.79
2016-12-11T02:26:52.805Z,1000.77
2016-12-11T02:28:02.841Z,1000.73
2016-12-11T02:29:12.867Z,1000.72
2016-12-11T02:30:22.281Z,1000.76
2016-12-11T02:31:32.315Z,1000.74
2016-12-11T02:32:42.338Z,1000.66
2016-12-11T02:33:52.663Z,1000.69
2016-12-11T02:35:02.992Z,1000.66
2016-12-11T02:36:13.313Z,1000.62
2016-12-11T02:37:23.635Z,1000.64
2016-12-11T02:38:33.987Z,1000.64
2016-12-11T02:39:44.328Z,1000.64
2016-12-11T02:40:54.652Z,1000.63
2016-12-11T02:42:04.678Z,1000.58
2016-12-11T02:43:15.018Z,1000.66
2016-12-11T02:44:25.061Z,1000.63
2016-12-11T02:45:35.385Z,1000.63
2016-12-11T02:46:45.713Z,1000.65
2016-12-11T02:47:55.725Z,1000.61
2016-12-11T02:49:06.062Z,1000.61
2016-12-11T02:50:16.418Z,1000.62
2016-12-11T02:51:26.739Z,1000.57
2016-12-11T02:52:36.749Z,1000.52
2016-12-11T02:53:47.073Z,1000.43
2016-12-11T02:54:56.785Z,1000.47
2016-12-11T02:56:07.138Z,1000.39
2016-12-11T02:57:17.483Z,1000.44
2016-12-11T02:58:27.816Z,1000.41
2016-12-11T02:59:38.131Z,1000.44
2016-12-11T03:00:48.167Z,1000.4
2016-12-11T03:32:59.172Z,999.78
2016-12-11T03:34:09.483Z,999.78
2016-12-11T03:35:19.787Z,999.79
2016-12-11T03:36:30.106Z,999.8
2016-12-11T03:37:40.427Z,999.82
2016-12-11T03:38:50.434Z,999.78
2016-12-11T03:40:00.770Z,999.8
2016-12-11T03:41:10.786Z,999.81
2016-12-11T03:42:20.817Z,999.8
2016-12-11T03:43:31.155Z,999.76
2016-12-11T03:44:41.176Z,999.75
2016-12-11T03:45:50.588Z,999.71
2016-12-11T03:47:00.921Z,999.71
2016-12-11T03:48:11.282Z,999.67
2016-12-11T03:49:21.612Z,999.67
2016-12-11T03:50:31.345Z,999.66
2016-12-11T03:51:41.067Z,999.64
2016-12-11T03:52:50.757Z,999.58
2016-12-11T03:54:01.098Z,999.62
2016-12-11T03:55:11.124Z,999.57
2016-12-11T03:56:21.447Z,999.57
2016-12-11T03:57:31.454Z,999.55
2016-12-11T03:58:41.781Z,999.53
2016-12-11T03:59:52.114Z,999.53
2016-12-11T04:01:02.440Z,999.54
2016-12-11T04:02:12.472Z,999.52
2016-12-11T04:03:22.497Z,999.53
2016-12-11T04:04:32.520Z,999.56
2016-12-11T04:05:42.541Z,999.53
2016-12-11T04:06:52.567Z,999.57
2016-12-11T04:08:02.894Z,999.55
2016-12-11T04:09:12.597Z,999.54
2016-12-11T04:10:22.609Z,999.53
2016-12-11T04:11:32.305Z,999.5
2016-12-11T04:12:42.320Z,999.45
2016-12-11T04:13:52.637Z,999.43
2016-12-11T04:15:02.665Z,999.43
2016-12-11T04:16:12.991Z,999.44
2016-12-11T04:17:23.319Z,999.44
2016-12-11T04:18:33.656Z,999.45
2016-12-11T04:19:43.981Z,999.44
2016-12-11T04:20:54.013Z,999.43
2016-12-11T04:22:04.339Z,999.41
2016-12-11T04:23:13.733Z,999.43
2016-12-11T04:24:24.052Z,999.39
2016-12-11T04:25:33.770Z,999.41
2016-12-11T04:26:43.476Z,999.42
2016-12-11T04:27:53.813Z,999.43
2016-12-11T04:29:03.563Z,999.4
2016-12-11T04:30:13.902Z,999.38
2016-12-11T04:31:24.252Z,999.37
2016-12-11T04:32:34.589Z,999.36
2016-12-11T04:33:44.296Z,999.37
2016-12-11T04:34:54.623Z,999.39
2016-12-11T04:36:04.625Z,999.35
2016-12-11T04:37:14.329Z,999.35
2016-12-11T04:38:24.663Z,999.36
2016-12-11T04:39:34.997Z,999.38
2016-12-11T04:40:45.011Z,999.37
2016-12-11T04:41:55.348Z,999.34
2016-12-11T04:43:05.684Z,999.31
2016-12-11T04:44:16.006Z,999.31
2016-12-11T04:45:25.713Z,999.26
2016-12-11T04:46:35.416Z,999.25
2016-12-11T04:47:45.747Z,999.27
2016-12-11T04:48:55.455Z,999.26
2016-12-11T04:50:05.786Z,999.26
2016-12-11T04:51:15.803Z,999.21
2016-12-11T04:52:25.816Z,999.21
2016-12-11T04:53:35.834Z,999.17
2016-12-11T04:54:45.850Z,999.17
2016-12-11T04:55:56.178Z,999.14
2016-12-11T04:57:06.516Z,999.1
2016-12-11T04:58:16.222Z,999.11
2016-12-11T04:59:26.553Z,999.11
2016-12-11T05:00:36.580Z,999.12
2016-12-11T05:01:46.912Z,999.11
2016-12-11T05:02:56.915Z,999.09
2016-12-11T05:04:07.256Z,999.09
2016-12-11T05:05:17.593Z,999.09
2016-12-11T05:06:27.604Z,999.14
2016-12-11T05:07:37.612Z,999.07
2016-12-11T05:08:47.319Z,999.11
2016-12-11T05:09:57.344Z,999.1
2016-12-11T05:11:07.367Z,999.07
2016-12-11T05:12:17.397Z,999.11
2016-12-11T05:13:27.410Z,999.1
2016-12-11T05:14:37.132Z,999.09
2016-12-11T05:15:47.178Z,999.07
2016-12-11T05:16:57.501Z,999.05
2016-12-11T05:18:07.830Z,999.06
2016-12-11T05:19:17.558Z,999.05
2016-12-11T05:20:27.890Z,999.01
2016-12-11T05:21:38.213Z,998.98
2016-12-11T05:22:48.538Z,999.02
2016-12-11T05:23:58.865Z,998.99
2016-12-11T05:25:09.196Z,998.94
2016-12-11T05:26:19.526Z,998.95
2016-12-11T05:27:29.856Z,998.95
2016-12-11T05:28:40.196Z,998.92
2016-12-11T05:29:50.222Z,998.91
2016-12-11T05:31:00.554Z,998.95
2016-12-11T05:32:10.881Z,998.91
2016-12-11T05:33:20.898Z,998.97
2016-12-11T05:34:30.609Z,998.95
2016-12-11T05:35:40.941Z,998.93
2016-12-11T05:36:50.957Z,998.94
2016-12-11T05:38:01.300Z,998.91
2016-12-11T05:39:11.620Z,998.89
2016-12-11T05:40:21.644Z,998.9
2016-12-11T05:41:31.979Z,998.91
2016-12-11T05:42:42.345Z,998.9
2016-12-11T05:43:52.057Z,998.88
2016-12-11T05:45:02.093Z,998.87
2016-12-11T05:46:12.420Z,998.88
2016-12-11T05:47:22.443Z,998.87
2016-12-11T05:48:32.143Z,998.85
2016-12-11T05:49:41.849Z,998.84
2016-12-11T05:50:52.193Z,998.89
2016-12-11T05:52:02.516Z,998.87
2016-12-11T05:53:12.855Z,998.89
2016-12-11T05:54:23.192Z,998.86
2016-12-11T05:55:32.889Z,998.85
2016-12-11T05:56:42.591Z,998.81
2016-12-11T05:57:52.602Z,998.79
2016-12-11T05:59:02.939Z,998.81
2016-12-11T06:00:12.955Z,998.78
2016-12-11T06:01:23.280Z,998.82
2016-12-11T06:02:33.293Z,998.79
2016-12-11T06:03:43.615Z,998.75
2016-12-11T06:04:53.632Z,998.77
2016-12-11T06:06:03.657Z,998.76
2016-12-11T06:07:13.675Z,998.76
2016-12-11T06:08:24.005Z,998.79
2016-12-11T06:09:34.328Z,998.77
2016-12-11T06:10:44.087Z,998.77
2016-12-11T06:11:54.416Z,998.75
2016-12-11T06:13:04.749Z,998.81
2016-12-11T06:14:14.774Z,998.77
2016-12-11T06:15:24.816Z,998.73
2016-12-11T06:16:35.143Z,998.74
2016-12-11T06:17:45.487Z,998.73
2016-12-11T06:18:55.811Z,998.66
2016-12-11T06:20:05.829Z,998.65
2016-12-11T06:21:15.846Z,998.69
2016-12-11T06:22:25.297Z,998.58
2016-12-11T06:23:35.307Z,998.59
2016-12-11T06:24:45.020Z,998.66
2016-12-11T06:25:55.051Z,998.72
2016-12-11T06:27:05.063Z,998.7
2016-12-11T06:28:15.415Z,998.74
2016-12-11T06:29:25.749Z,998.75
2016-12-11T06:30:36.088Z,998.78
2016-12-11T06:31:45.792Z,998.78
2016-12-11T06:32:55.493Z,998.86
2016-12-11T06:34:05.823Z,998.84
2016-12-11T06:35:15.846Z,998.83
2016-12-11T06:36:26.182Z,998.85
2016-12-11T06:37:36.509Z,998.85
2016-12-11T06:38:46.523Z,998.87
2016-12-11T06:39:56.860Z,998.88
2016-12-11T06:41:06.870Z,998.89
2016-12-11T06:42:17.197Z,998.92
2016-12-11T06:43:27.528Z,998.89
2016-12-11T06:44:37.249Z,998.92
2016-12-11T06:45:47.265Z,998.96
2016-12-11T06:46:57.598Z,998.97
2016-12-11T06:48:07.614Z,999
2016-12-11T06:49:17.641Z,999.04
2016-12-11T06:50:27.663Z,999.07
2016-12-11T06:51:37.679Z,999.07
2016-12-11T06:52:47.698Z,999.04
2016-12-11T06:53:57.714Z,999.11
2016-12-11T06:55:07.724Z,999.05
2016-12-11T06:56:17.751Z,999.02
2016-12-11T06:57:27.772Z,999.07
2016-12-11T06:58:38.099Z,999.08
2016-12-11T06:59:48.438Z,999.1
2016-12-11T07:00:58.462Z,999.13
2016-12-11T07:02:08.499Z,999.14
2016-12-11T07:03:17.901Z,999.2
2016-12-11T07:04:28.222Z,999.14
2016-12-11T07:05:38.240Z,999.13
2016-12-11T07:06:48.251Z,999.17
2016-12-11T07:07:58.588Z,999.22
2016-12-11T07:09:08.294Z,999.17
2016-12-11T07:10:18.639Z,999.26
2016-12-11T07:11:28.965Z,999.26
2016-12-11T07:12:39.309Z,999.3
2016-12-11T07:13:49.336Z,999.34
2016-12-11T07:14:59.033Z,999.32
2016-12-11T07:16:08.989Z,999.35
2016-12-11T07:17:18.692Z,999.37
2016-12-11T07:18:29.023Z,999.43
2016-12-11T07:19:39.035Z,999.37
2016-12-11T07:20:48.757Z,999.41
2016-12-11T07:21:58.763Z,999.36
2016-12-11T07:23:08.795Z,999.51
2016-12-11T07:24:19.141Z,999.54
2016-12-11T07:25:29.482Z,999.48
2016-12-11T07:26:39.197Z,999.54
2016-12-11T07:27:49.531Z,999.5
2016-12-11T07:28:59.563Z,999.46
2016-12-11T07:30:09.586Z,999.44
2016-12-11T07:31:19.605Z,999.47
2016-12-11T07:32:29.957Z,999.4
2016-12-11T07:33:39.975Z,999.41
2016-12-11T07:34:49.690Z,999.32
2016-12-11T07:35:59.723Z,999.34
2016-12-11T07:37:09.735Z,999.31
2016-12-11T07:38:19.753Z,999.3
2016-12-11T07:39:29.770Z,999.31
2016-12-11T07:40:40.115Z,999.35
2016-12-11T07:41:50.442Z,999.35
2016-12-11T07:43:00.483Z,999.31
2016-12-11T07:44:10.821Z,999.41
2016-12-11T07:45:20.543Z,999.33
2016-12-11T07:46:30.257Z,999.4
2016-12-11T07:47:40.325Z,999.39
2016-12-11T07:48:50.379Z,999.5
2016-12-11T07:50:00.710Z,999.38
2016-12-11T07:51:10.731Z,999.39
2016-12-11T07:52:20.752Z,999.42
2016-12-11T07:53:31.084Z,999.44
2016-12-11T07:54:41.110Z,999.51
2016-12-11T07:55:51.435Z,999.51
2016-12-11T07:57:01.774Z,999.51
2016-12-11T07:58:12.145Z,999.57
2016-12-11T07:59:21.871Z,999.54
2016-12-11T08:00:31.890Z,999.53
2016-12-11T08:01:42.245Z,999.46
2016-12-11T08:02:51.952Z,999.41
2016-12-11T08:04:02.307Z,999.47
2016-12-11T08:05:12.641Z,999.37
2016-12-11T08:06:22.988Z,999.48
2016-12-11T08:07:33.353Z,999.38
2016-12-11T08:08:43.386Z,999.4
2016-12-11T08:09:53.737Z,999.47
2016-12-11T08:11:03.783Z,999.38
2016-12-11T08:12:14.140Z,999.35
2016-12-11T08:13:24.160Z,999.34
2016-12-11T08:14:34.509Z,999.3
2016-12-11T08:15:44.845Z,999.38
2016-12-11T08:16:55.208Z,999.37
2016-12-11T08:18:05.542Z,999.37
2016-12-11T08:19:15.606Z,999.44
2016-12-11T08:20:25.954Z,999.34
2016-12-11T08:21:35.986Z,999.33
2016-12-11T08:22:46.314Z,999.32
2016-12-11T08:23:56.328Z,999.3
2016-12-11T08:25:06.044Z,999.48
2016-12-11T08:26:16.371Z,999.27
2016-12-11T08:27:26.403Z,999.31
2016-12-11T08:28:36.729Z,999.34
2016-12-11T08:29:46.742Z,999.22
2016-12-11T08:30:57.080Z,999.14
2016-12-11T08:32:07.434Z,999.13
2016-12-11T08:33:17.473Z,999.14
2016-12-11T08:34:27.798Z,999.18
2016-12-11T08:35:37.825Z,999.12
2016-12-11T08:36:48.153Z,999.28
2016-12-11T08:37:58.182Z,999.25
2016-12-11T08:39:08.209Z,999.23
2016-12-11T08:40:18.536Z,999.19
2016-12-11T08:41:27.978Z,999.06
2016-12-11T08:42:38.003Z,998.95
2016-12-11T08:43:48.346Z,999.11
2016-12-11T08:44:58.683Z,999.11
2016-12-11T08:46:08.395Z,999.27
2016-12-11T08:47:18.411Z,999.29
2016-12-11T08:48:28.133Z,999.43
2016-12-11T08:49:38.469Z,999.4
2016-12-11T08:50:48.505Z,999.36
2016-12-11T08:51:58.529Z,999.4
2016-12-11T08:53:08.868Z,999.47
2016-12-11T08:54:19.224Z,999.42
2016-12-11T08:55:29.557Z,999.69
2016-12-11T08:56:39.911Z,999.69
2016-12-11T08:57:50.247Z,999.56
2016-12-11T08:58:59.969Z,999.59
2016-12-11T09:00:10.320Z,999.6
2016-12-11T09:01:20.336Z,999.48
2016-12-11T09:02:30.659Z,999.51
2016-12-11T09:03:40.384Z,999.69
2016-12-11T09:04:50.728Z,999.58
2016-12-11T09:06:00.750Z,999.86
2016-12-11T09:07:11.101Z,999.41
2016-12-11T09:08:21.420Z,999.6
2016-12-11T09:09:31.767Z,999.55
2016-12-11T09:10:41.810Z,999.59
2016-12-11T09:11:52.183Z,999.2
2016-12-11T09:13:02.213Z,999.53
2016-12-11T09:14:12.240Z,999.41
2016-12-11T09:15:21.952Z,999.35
2016-12-11T09:16:31.678Z,999.44
2016-12-11T09:17:41.081Z,999.27
2016-12-11T09:18:51.108Z,999.23
2016-12-11T09:20:01.481Z,999.3
2016-12-11T09:21:11.805Z,999.1
2016-12-11T09:22:21.512Z,999.08
2016-12-11T09:23:31.539Z,999.05
2016-12-11T09:24:41.561Z,999.17
2016-12-11T09:25:51.903Z,999.06
2016-12-11T09:27:01.625Z,999.04
2016-12-11T09:28:11.654Z,999.02
2016-12-11T09:29:21.999Z,999.07
2016-12-11T09:30:32.026Z,998.91
2016-12-11T09:31:42.356Z,998.85
2016-12-11T09:32:52.715Z,998.87
2016-12-11T09:34:02.755Z,998.9
2016-12-11T09:35:13.084Z,998.81
2016-12-11T09:36:23.453Z,998.71
2016-12-11T09:37:33.807Z,998.73
2016-12-11T09:38:43.226Z,998.63
2016-12-11T09:39:53.581Z,998.6
2016-12-11T09:41:03.641Z,998.72
2016-12-11T09:42:13.668Z,998.54
2016-12-11T09:43:23.723Z,998.41
2016-12-11T09:44:34.075Z,998.57
2016-12-11T09:45:44.439Z,998.43
2016-12-11T09:46:54.794Z,998.44
2016-12-11T09:48:04.841Z,998.36
2016-12-11T09:49:14.873Z,998.37
2016-12-11T09:50:24.908Z,998.34
2016-12-11T09:51:35.277Z,998.29
2016-12-11T09:52:44.673Z,998.32
2016-12-11T09:53:55.019Z,998.38
2016-12-11T09:55:05.066Z,998.15
2016-12-11T09:56:15.108Z,998.19
2016-12-11T09:57:25.460Z,998.25
2016-12-11T09:58:35.806Z,998.14
2016-12-11T09:59:46.154Z,998.22
2016-12-11T10:00:56.184Z,998.1
2016-12-11T10:02:06.234Z,998.18
2016-12-11T10:03:16.585Z,998.13
2016-12-11T10:04:26.320Z,998.2
2016-12-11T10:05:36.675Z,998.07
2016-12-11T10:06:47.017Z,998
2016-12-11T10:07:57.365Z,998.08
2016-12-11T10:09:07.416Z,998.06
2016-12-11T10:10:17.773Z,998.09
2016-12-11T10:11:28.134Z,998.06
2016-12-11T10:12:38.482Z,998
2016-12-11T10:13:48.205Z,997.97
2016-12-11T10:14:57.629Z,997.86
2016-12-11T10:16:07.327Z,997.91
2016-12-11T10:17:17.350Z,997.75
2016-12-11T10:18:27.379Z,997.75
2016-12-11T10:19:37.431Z,997.85
2016-12-11T10:20:47.463Z,997.59
2016-12-11T10:21:57.193Z,997.54
2016-12-11T10:23:07.247Z,997.63
2016-12-11T10:24:17.279Z,997.58
2016-12-11T10:25:27.621Z,997.49
2016-12-11T10:26:37.993Z,997.47
2016-12-11T10:27:48.317Z,997.51
2016-12-11T10:28:58.663Z,997.44
2016-12-11T10:30:08.725Z,997.39
2016-12-11T10:31:19.075Z,997.36
2016-12-11T10:32:28.803Z,997.43
2016-12-11T10:33:39.163Z,997.41
2016-12-11T10:34:49.513Z,997.48
2016-12-11T10:35:59.558Z,997.49
2016-12-11T10:37:09.304Z,997.65
2016-12-11T10:38:19.651Z,997.56
2016-12-11T10:39:29.714Z,997.62
2016-12-11T10:40:39.751Z,997.63
2016-12-11T10:41:49.793Z,997.63
2016-12-11T10:42:59.862Z,997.6
2016-12-11T10:44:09.903Z,997.54
2016-12-11T10:45:19.954Z,997.48
2016-12-11T10:46:29.990Z,997.56
2016-12-11T10:47:40.345Z,997.39
2016-12-11T10:48:50.428Z,997.34
2016-12-11T10:50:00.765Z,997.3
2016-12-11T10:51:11.106Z,997.33
2016-12-11T10:52:21.468Z,997.24
2016-12-11T10:53:31.495Z,997.17
2016-12-11T10:54:41.840Z,997.18
2016-12-11T10:55:51.875Z,997.09
2016-12-11T10:57:02.226Z,997.02
2016-12-11T10:58:12.253Z,997.02
2016-12-11T10:59:22.331Z,997.1
2016-12-11T11:00:32.682Z,997.17
2016-12-11T11:01:42.698Z,996.98
2016-12-11T11:02:52.727Z,997.1
2016-12-11T11:04:02.772Z,997.1
2016-12-11T11:05:12.823Z,997.02
2016-12-11T11:06:22.535Z,997
2016-12-11T11:07:32.281Z,996.98
2016-12-11T11:08:42.660Z,996.99
2016-12-11T11:09:53.020Z,997.04
2016-12-11T11:11:03.367Z,997.02
2016-12-11T11:12:13.100Z,997.07
2016-12-11T11:13:22.828Z,996.89
2016-12-11T11:14:32.548Z,997.15
2016-12-11T11:15:42.898Z,996.94
2016-12-11T11:16:52.963Z,996.96
2016-12-11T11:18:03.000Z,997.01
2016-12-11T11:19:13.377Z,996.95
2016-12-11T11:20:23.726Z,996.93
2016-12-11T11:21:33.756Z,996.84
2016-12-11T11:22:44.085Z,996.75
2016-12-11T11:23:53.826Z,996.83
2016-12-11T11:25:03.855Z,996.72
2016-12-11T11:26:13.617Z,996.84
2016-12-11T11:27:23.647Z,996.78
2016-12-11T11:28:33.982Z,996.76
2016-12-11T11:29:44.334Z,996.77
2016-12-11T11:30:54.055Z,996.61
2016-12-11T11:32:04.408Z,996.76
2016-12-11T11:33:14.767Z,996.95
2016-12-11T11:34:24.785Z,996.75
2016-12-11T11:35:34.831Z,996.54
2016-12-11T11:36:44.876Z,996.66
2016-12-11T11:37:54.900Z,996.57
2016-12-11T11:39:04.923Z,996.43
2016-12-11T11:40:14.965Z,996.7
2016-12-11T11:41:25.016Z,996.54
2016-12-11T11:42:35.359Z,996.61
2016-12-11T11:43:45.084Z,996.6
2016-12-11T11:44:55.162Z,996.71
2016-12-11T11:46:05.538Z,996.6
2016-12-11T11:47:15.284Z,996.61
2016-12-11T11:48:25.483Z,996.71
2016-12-11T11:49:35.527Z,996.54
2016-12-11T11:50:45.582Z,996.77
2016-12-11T11:51:55.938Z,996.41
2016-12-11T11:53:06.296Z,996.74
2016-12-11T11:54:16.673Z,996.71
2016-12-11T11:55:26.712Z,996.26
2016-12-11T11:56:36.753Z,996.61
2016-12-11T11:57:47.107Z,996.64
2016-12-11T11:58:57.444Z,996.46
2016-12-11T12:00:07.202Z,996.63
2016-12-11T12:01:17.267Z,996.64
2016-12-11T12:02:27.604Z,996.6
2016-12-11T12:03:37.631Z,996.49
2016-12-11T12:04:47.704Z,996.53
2016-12-11T12:05:57.776Z,996.61
2016-12-11T12:07:08.175Z,996.63
2016-12-11T12:08:18.195Z,996.77
2016-12-11T12:09:28.237Z,996.74
2016-12-11T12:10:38.626Z,996.77
2016-12-11T12:11:48.686Z,996.87
2016-12-11T12:12:58.720Z,997.03
2016-12-11T12:14:09.092Z,997.05
2016-12-11T12:15:19.521Z,996.98
2016-12-11T12:16:30.498Z,996.99
2016-12-11T12:17:40.868Z,996.91
2016-12-11T12:18:50.938Z,997.11
2016-12-11T12:20:00.684Z,996.98
2016-12-11T12:21:10.758Z,996.98
2016-12-11T12:22:20.515Z,996.81
2016-12-11T12:23:30.289Z,997.15
2016-12-11T12:24:40.317Z,996.91
2016-12-11T12:25:50.735Z,996.9
2016-12-11T12:27:01.124Z,997.02
2016-12-11T12:28:11.195Z,997.04
2016-12-11T12:29:21.567Z,996.99
2016-12-11T12:30:31.972Z,997.03
2016-12-11T12:31:42.078Z,997.01
2016-12-11T12:32:52.186Z,996.95
2016-12-11T12:34:02.229Z,996.88
2016-12-11T12:35:12.488Z,996.83
2016-12-11T12:36:22.839Z,997.09
2016-12-11T12:37:33.208Z,996.99
2016-12-11T12:38:43.576Z,996.9
2016-12-11T12:39:53.942Z,996.97
2016-12-11T12:41:04.125Z,997.08
2016-12-11T12:42:14.655Z,996.96
2016-12-11T12:43:24.693Z,996.96
2016-12-11T12:44:34.724Z,997.01
2016-12-11T12:45:44.146Z,996.83
2016-12-11T12:46:54.492Z,996.86
2016-12-11T12:48:05.105Z,996.9
2016-12-11T12:49:15.172Z,996.83
2016-12-11T12:50:25.523Z,996.91
2016-12-11T12:51:35.609Z,996.88
2016-12-11T12:52:46.023Z,996.87
2016-12-11T12:53:56.433Z,996.91
2016-12-11T12:55:06.484Z,996.86
2016-12-11T12:56:16.211Z,996.89
2016-12-11T12:57:26.249Z,996.91
2016-12-11T12:58:36.614Z,996.85
2016-12-11T12:59:46.954Z,996.91
2016-12-11T13:00:57.313Z,996.81
2016-12-11T13:02:07.333Z,996.87
2016-12-11T13:03:17.395Z,996.76
2016-12-11T13:04:27.460Z,996.68
2016-12-11T13:05:37.849Z,996.71
2016-12-11T13:06:48.186Z,996.69
2016-12-11T13:07:58.261Z,996.79
2016-12-11T13:09:08.305Z,996.78
2016-12-11T13:10:18.672Z,996.83
2016-12-11T13:11:29.013Z,996.76
2016-12-11T13:12:39.078Z,996.81
2016-12-11T13:13:48.803Z,996.83
2016-12-11T13:14:59.166Z,996.72
2016-12-11T13:16:09.533Z,996.79
2016-12-11T13:17:19.587Z,996.68
2016-12-11T13:18:29.628Z,996.61
2016-12-11T13:19:39.957Z,996.62
2016-12-11T13:20:50.019Z,996.5
2016-12-11T13:22:00.388Z,996.53
2016-12-11T13:23:10.745Z,996.64
2016-12-11T13:24:21.110Z,996.61
2016-12-11T13:25:31.485Z,996.7
2016-12-11T13:26:41.847Z,996.75
2016-12-11T13:27:51.886Z,996.88
2016-12-11T13:29:01.933Z,996.75
2016-12-11T13:30:11.996Z,996.61
2016-12-11T13:31:21.729Z,996.71
2016-12-11T13:32:31.781Z,996.79
2016-12-11T13:33:42.159Z,996.93
2016-12-11T13:34:52.212Z,996.83
2016-12-11T13:36:02.552Z,996.99
2016-12-11T13:37:12.593Z,996.99
2016-12-11T13:38:22.641Z,997.04
2016-12-11T13:39:33.009Z,997.1
2016-12-11T13:40:43.371Z,997.08
2016-12-11T13:41:53.389Z,996.98
2016-12-11T13:43:02.837Z,997.18
2016-12-11T13:44:12.301Z,997.21
2016-12-11T13:45:22.350Z,997.21
2016-12-11T13:46:32.387Z,997.25
2016-12-11T13:47:42.746Z,997.26
2016-12-11T13:48:52.466Z,997.18
2016-12-11T13:50:02.835Z,997.16
2016-12-11T13:51:12.872Z,997.08
2016-12-11T13:52:22.963Z,997.28
2016-12-11T13:53:32.702Z,997.29
2016-12-11T13:54:43.061Z,997.56
2016-12-11T13:55:53.431Z,997.43
2016-12-11T13:57:03.456Z,997.4
2016-12-11T13:58:12.864Z,997.49
2016-12-11T13:59:22.933Z,997.45
2016-12-11T14:00:33.318Z,997.35
2016-12-11T14:01:43.679Z,997.38
2016-12-11T14:02:53.418Z,997.31
2016-12-11T14:04:03.516Z,997.37
2016-12-11T14:05:13.594Z,997.37
2016-12-11T14:06:23.952Z,997.45
2016-12-11T14:07:33.668Z,997.44
2016-12-11T14:08:44.039Z,997.52
2016-12-11T14:09:54.115Z,997.47
2016-12-11T14:11:04.716Z,997.43
2016-12-11T14:12:17.325Z,997.24
2016-12-11T14:13:31.024Z,997.2
2016-12-11T14:14:43.335Z,997.17
2016-12-11T14:15:57.320Z,997.31
2016-12-11T14:17:10.326Z,997.18
2016-12-11T14:18:23.983Z,997.26
2016-12-11T14:19:38.266Z,997.05
2016-12-11T14:20:48.372Z,997.15
2016-12-11T14:21:58.729Z,997.33
2016-12-11T14:23:09.152Z,997.25
2016-12-11T14:24:18.855Z,997.37
2016-12-11T14:25:28.905Z,997.42
2016-12-11T14:26:39.269Z,997.59
2016-12-11T14:27:49.626Z,997.46
2016-12-11T14:28:59.996Z,997.49
2016-12-11T14:30:09.714Z,997.51
2016-12-11T14:31:20.320Z,997.38
2016-12-11T14:32:29.751Z,997.52
2016-12-11T14:33:39.773Z,997.51
2016-12-11T14:34:49.823Z,997.51
2016-12-11T14:35:59.567Z,997.65
2016-12-11T14:37:09.615Z,997.63
2016-12-11T14:38:19.999Z,997.7
2016-12-11T14:39:30.353Z,997.75
2016-12-11T14:40:40.727Z,997.56
2016-12-11T14:41:51.085Z,997.58
2016-12-11T14:43:01.127Z,997.58
2016-12-11T14:44:11.184Z,997.61
2016-12-11T14:45:21.519Z,997.44
2016-12-11T14:46:31.242Z,997.53
2016-12-11T14:47:41.597Z,997.5
2016-12-11T14:48:51.977Z,997.57
2016-12-11T14:50:02.011Z,997.56
2016-12-11T14:51:12.380Z,997.53
2016-12-11T14:52:22.738Z,997.66
2016-12-11T14:54:19.273Z,997.58
2016-12-11T14:55:29.013Z,997.65
2016-12-11T14:56:39.369Z,997.73
2016-12-11T14:57:49.705Z,997.73
2016-12-11T14:58:59.717Z,997.74
2016-12-11T15:00:09.752Z,997.75
2016-12-11T15:01:19.790Z,997.81
2016-12-11T15:02:29.516Z,997.8
2016-12-11T15:03:39.810Z,997.77
2016-12-11T15:04:49.850Z,997.88